createdAt,value
2022-11-17T04:28:49.810Z,3.40
2022-11-17T04:43:39.828Z,3.30
2022-11-17T04:45:56.101Z,2.90
2022-11-17T04:57:00.972Z,2.00
2022-11-17T05:08:00.825Z,2.60
2022-11-17T05:19:00.707Z,2.30
2022-11-17T05:30:00.581Z,2.70
2022-11-17T05:41:00.466Z,2.40
2022-11-17T05:52:00.333Z,2.70
2022-11-17T06:03:00.205Z,2.70
2022-11-17T06:14:00.138Z,2.10
2022-11-17T06:24:59.964Z,1.40
2022-11-17T06:35:59.833Z,1.30
2022-11-17T06:46:59.716Z,1.80
2022-11-17T06:57:59.606Z,1.80
2022-11-17T07:08:59.587Z,1.90
2022-11-17T07:19:59.339Z,1.80
2022-11-17T07:30:59.216Z,0.80
2022-11-17T07:41:59.115Z,1.80
2022-11-17T07:52:58.978Z,1.00
2022-11-17T08:03:58.951Z,1.00
2022-11-17T08:14:58.705Z,1.50
2022-11-17T08:25:58.582Z,0.90
2022-11-17T08:36:58.464Z,1.00
2022-11-17T08:47:58.355Z,1.80
2022-11-17T08:58:58.217Z,1.60
2022-11-17T09:09:58.103Z,0.90
2022-11-17T09:20:57.952Z,1.70
2022-11-17T09:31:57.896Z,0.90
2022-11-17T09:42:57.715Z,1.60
2022-11-17T09:53:57.594Z,2.00
2022-11-17T10:04:57.463Z,0.80
2022-11-17T10:15:57.341Z,1.60
2022-11-17T10:26:57.208Z,1.40
2022-11-17T10:37:57.085Z,1.50
2022-11-17T10:48:56.983Z,1.10
2022-11-17T10:59:57.459Z,1.30
2022-11-17T11:10:56.728Z,1.30
2022-11-17T11:21:56.610Z,2.10
2022-11-17T11:32:56.467Z,1.20
2022-11-17T11:43:56.338Z,1.10
2022-11-17T11:54:56.337Z,1.50
2022-11-17T12:05:56.100Z,1.30
2022-11-17T12:16:55.955Z,2.10
2022-11-17T12:27:55.845Z,1.20
2022-11-17T12:38:55.711Z,1.00
2022-11-17T12:49:55.580Z,0.80
2022-11-17T13:00:55.487Z,1.00
2022-11-17T13:11:55.363Z,1.50
2022-11-17T13:22:55.199Z,1.10
2022-11-17T13:33:55.070Z,1.30
2022-11-17T13:44:54.945Z,2.10
2022-11-17T13:55:54.816Z,0.80
2022-11-17T14:06:54.740Z,0.90
2022-11-17T14:17:54.601Z,1.50
2022-11-17T14:28:54.441Z,1.20
2022-11-17T14:39:54.316Z,0.70
2022-11-17T14:50:54.207Z,1.30
2022-11-17T15:01:54.068Z,1.10
2022-11-17T15:12:53.951Z,1.20
2022-11-17T15:23:53.937Z,1.10
2022-11-17T15:34:53.713Z,1.30
2022-11-17T15:45:53.582Z,1.40
2022-11-17T15:56:53.450Z,1.50
2022-11-17T16:07:53.335Z,1.30
2022-11-17T16:18:53.193Z,1.20
2022-11-17T16:29:53.084Z,1.40
2022-11-17T16:40:52.966Z,2.50
2022-11-17T16:51:52.820Z,2.20
2022-11-17T17:02:52.747Z,1.50
2022-11-17T17:13:52.568Z,2.10
2022-11-17T17:24:52.453Z,2.00
2022-11-17T17:35:52.320Z,2.90
2022-11-17T17:46:52.189Z,2.50
2022-11-17T17:57:52.086Z,2.60
2022-11-17T18:08:51.948Z,2.50
2022-11-17T18:19:51.817Z,3.20
2022-11-17T18:30:51.707Z,2.50
2022-11-17T18:41:51.578Z,2.90
2022-11-17T18:52:51.447Z,2.80
2022-11-17T19:03:51.355Z,2.50
2022-11-17T19:14:51.199Z,3.10
2022-11-17T19:25:51.099Z,3.70
2022-11-17T19:36:50.938Z,3.40
2022-11-17T19:47:50.981Z,3.30
2022-11-17T19:58:50.725Z,3.40
2022-11-17T20:09:50.572Z,3.80
2022-11-17T20:20:50.438Z,4.30
2022-11-17T20:31:50.322Z,3.20
2022-11-17T20:42:50.190Z,3.80
2022-11-17T20:53:50.081Z,2.80
2022-11-17T21:04:49.960Z,2.60
2022-11-17T21:15:49.816Z,4.20
2022-11-17T21:26:49.713Z,2.60
2022-11-17T21:37:49.585Z,3.40
2022-11-17T21:48:49.470Z,3.20
